Time;durP1;ratioP1;P1;durP2;ratioP2;P2;SDS_P1;SDS_P2;PMS_P1;PMS_P2;Temp;Humidity;BMP_temperature;BMP_pressure;BME280_temperature;BME280_humidity;BME280_pressure;Samples;Min_cycle;Max_cycle;Signal;HPM_P1;HPM_P2
2021/06/23 00:01:11;;;;;;;8.68;3.10;;;;;;;16.34;87.35;101217.50;4926348;29;20032;-77
2021/06/23 00:03:37;;;;;;;9.18;3.10;;;;;;;16.37;86.67;101222.22;4918595;29;20503;-77
2021/06/23 00:06:03;;;;;;;8.82;2.97;;;;;;;16.37;86.91;101224.13;4924910;29;20123;-77
2021/06/23 00:08:28;;;;;;;9.90;3.03;;;;;;;16.37;86.91;101235.81;4931574;29;20036;-77
2021/06/23 00:10:54;;;;;;;12.38;3.00;;;;;;;16.36;86.71;101228.00;4915865;29;20139;-77
2021/06/23 00:13:20;;;;;;;10.63;3.45;;;;;;;16.27;87.05;101233.78;4936171;29;20087;-77
2021/06/23 00:15:46;;;;;;;7.82;3.15;;;;;;;16.22;86.79;101240.34;4924418;29;20036;-77
2021/06/23 00:18:11;;;;;;;10.38;3.00;;;;;;;16.19;86.73;101237.63;4927227;29;20098;-77
2021/06/23 00:20:37;;;;;;;12.70;3.00;;;;;;;16.17;87.35;101248.88;4918592;29;20565;-77
2021/06/23 00:23:03;;;;;;;8.05;2.97;;;;;;;16.11;87.49;101242.22;4933284;29;20019;-77
2021/06/23 00:25:31;;;;;;;13.07;3.20;;;;;;;16.04;87.66;101234.03;4925290;29;20038;-77
2021/06/23 00:27:57;;;;;;;6.35;3.05;;;;;;;15.99;88.39;101228.13;4906525;29;20062;-77
2021/06/23 00:30:23;;;;;;;7.57;3.35;;;;;;;16.01;88.99;101234.78;4923277;29;20052;-77
2021/06/23 00:32:52;;;;;;;11.55;3.35;;;;;;;16.05;87.85;101238.28;4936024;29;20035;-77
2021/06/23 00:35:17;;;;;;;7.53;3.38;;;;;;;15.95;88.43;101235.50;4935606;29;20024;-77
2021/06/23 00:37:42;;;;;;;11.65;3.30;;;;;;;15.96;88.48;101232.41;4929414;29;20046;-76
2021/06/23 00:40:09;;;;;;;11.63;3.58;;;;;;;15.97;88.59;101222.31;4943256;29;20451;-76
2021/06/23 00:42:35;;;;;;;8.57;3.53;;;;;;;15.95;88.91;101216.50;4923299;29;20067;-77
2021/06/23 00:45:07;;;;;;;6.88;3.35;;;;;;;15.98;89.24;101208.38;4907313;29;20467;-77
2021/06/23 00:47:33;;;;;;;7.68;3.60;;;;;;;15.99;89.45;101200.97;4920804;29;20060;-77
2021/06/23 00:50:04;;;;;;;5.97;3.25;;;;;;;15.97;89.37;101206.78;4915300;29;20470;-77
2021/06/23 00:52:59;;;;;;;8.43;3.17;;;;;;;15.97;89.99;101206.78;4889867;29;20172;-77
2021/06/23 00:55:32;;;;;;;10.85;3.30;;;;;;;15.96;90.12;101197.09;4908180;29;20039;-77
2021/06/23 00:57:58;;;;;;;6.45;3.13;;;;;;;15.99;89.65;101209.13;4898196;29;20028;-77
2021/06/23 01:00:29;;;;;;;11.75;3.55;;;;;;;15.95;89.82;101209.09;4916919;29;20038;-77
2021/06/23 01:02:59;;;;;;;10.90;3.42;;;;;;;15.91;90.15;101219.16;4924313;29;20040;-77
2021/06/23 01:05:27;;;;;;;8.77;3.72;;;;;;;15.97;90.35;101211.44;4906013;29;20454;-77
2021/06/23 01:07:54;;;;;;;8.65;3.65;;;;;;;15.97;90.46;101227.75;4916614;29;20532;-77
2021/06/23 01:10:20;;;;;;;12.85;3.78;;;;;;;16.04;90.73;101234.03;4925666;29;20028;-77
2021/06/23 01:12:57;;;;;;;10.98;3.30;;;;;;;16.09;89.61;101227.44;4918662;29;20031;-77
2021/06/23 01:15:24;;;;;;;11.73;3.75;;;;;;;16.11;89.37;101219.69;4930194;29;20044;-77
2021/06/23 01:17:50;;;;;;;13.65;3.70;;;;;;;15.94;90.69;101215.72;4943436;29;20024;-77
2021/06/23 01:20:16;;;;;;;8.50;3.55;;;;;;;16.04;91.10;101216.94;4918816;29;20050;-77
2021/06/23 01:22:43;;;;;;;9.13;3.28;;;;;;;16.05;91.17;101207.63;4931590;29;20039;-77
2021/06/23 01:25:14;;;;;;;9.45;3.42;;;;;;;16.08;90.87;101199.50;4907558;29;20148;-77
2021/06/23 01:27:42;;;;;;;;;;;;;;;15.89;91.46;101207.88;4929882;29;20044;-77
2021/06/23 01:30:10;;;;;;;11.85;3.65;;;;;;;15.97;91.87;101212.22;4917681;29;19925;-77
2021/06/23 01:32:46;;;;;;;9.57;3.60;;;;;;;16.04;92.44;101212.28;4910686;29;20075;-77
2021/06/23 01:35:14;;;;;;;10.05;3.85;;;;;;;16.07;92.53;101211.53;4917534;29;20525;-77
2021/06/23 01:37:40;;;;;;;10.68;3.78;;;;;;;16.09;91.77;101209.22;4923334;29;20498;-77
2021/06/23 01:40:07;;;;;;;9.60;3.80;;;;;;;16.17;91.59;101213.53;4917711;29;20038;-77
2021/06/23 01:42:35;;;;;;;8.50;3.80;;;;;;;16.16;91.56;101209.25;4919679;29;20027;-77
2021/06/23 01:45:01;;;;;;;10.13;3.95;;;;;;;16.19;89.86;101219.38;4913379;29;20885;-77
2021/06/23 01:47:27;;;;;;;16.10;4.43;;;;;;;16.15;90.76;101213.13;4917250;29;20067;-77
2021/06/23 01:49:53;;;;;;;8.63;4.00;;;;;;;16.08;91.45;101218.53;4904821;29;20052;-77
2021/06/23 01:52:21;;;;;;;8.85;4.18;;;;;;;16.12;91.12;101219.31;4900090;29;20040;-77
2021/06/23 01:54:47;;;;;;;10.18;4.32;;;;;;;16.09;90.98;101219.28;4916722;29;20020;-77
2021/06/23 01:57:13;;;;;;;11.63;4.15;;;;;;;16.08;91.40;101228.63;4891800;29;20064;-77
2021/06/23 01:59:41;;;;;;;9.10;3.65;;;;;;;16.15;90.37;101234.09;4907606;29;20063;-77
2021/06/23 02:02:20;;;;;;;;;;;;;;;15.86;91.13;101226.88;4916483;29;20525;-77
2021/06/23 02:05:01;;;;;;;8.93;3.93;;;;;;;16.01;90.09;101223.91;4920262;29;19962;-77
2021/06/23 02:07:46;;;;;;;11.77;4.50;;;;;;;15.91;91.64;101235.47;4899811;29;20052;-77
2021/06/23 02:10:31;;;;;;;6.65;3.80;;;;;;;15.88;91.69;101230.78;4920292;29;20042;-77
2021/06/23 02:13:40;;;;;;;11.48;4.60;;;;;;;15.76;93.27;101250.09;4906961;29;20067;-76
2021/06/23 02:16:29;;;;;;;10.90;4.63;;;;;;;15.98;92.50;101254.56;4920113;29;20059;-77
2021/06/23 02:19:04;;;;;;;13.68;4.28;;;;;;;16.09;90.64;101257.34;4911354;29;20040;-77
2021/06/23 02:22:00;;;;;;;9.20;4.10;;;;;;;16.04;90.75;101253.06;4915455;29;20042;-77
2021/06/23 02:24:29;;;;;;;12.77;4.35;;;;;;;15.97;91.89;101250.25;4919052;29;20285;-77
2021/06/23 02:26:59;;;;;;;8.27;4.32;;;;;;;15.96;92.75;101247.94;4914790;29;20031;-77
2021/06/23 02:29:30;;;;;;;13.30;4.30;;;;;;;15.98;93.22;101240.97;4925614;29;20070;-77
2021/06/23 02:31:56;;;;;;;13.73;4.57;;;;;;;16.03;92.50;101243.31;4918922;29;20331;-77
2021/06/23 02:34:25;;;;;;;13.52;4.65;;;;;;;15.98;92.90;101240.19;4931060;29;20036;-77
2021/06/23 02:37:15;;;;;;;11.68;4.65;;;;;;;15.94;93.19;101251.03;4933825;29;20120;-77
2021/06/23 02:39:42;;;;;;;9.68;4.32;;;;;;;16.05;92.65;101241.00;4912398;29;20063;-77
2021/06/23 02:42:10;;;;;;;14.75;4.47;;;;;;;16.01;93.06;101250.28;4926896;29;20080;-77
2021/06/23 02:44:38;;;;;;;7.13;4.05;;;;;;;16.03;93.18;101254.19;4925208;29;20132;-77
2021/06/23 02:47:05;;;;;;;10.05;3.80;;;;;;;15.95;93.29;101274.31;4889793;29;20142;-77
2021/06/23 02:49:50;;;;;;;7.70;3.97;;;;;;;16.03;93.42;101256.91;4920343;29;20043;-77
2021/06/23 02:52:18;;;;;;;9.95;4.10;;;;;;;16.01;93.32;101272.03;4930151;28;20034;-77
2021/06/23 02:54:46;;;;;;;12.13;4.20;;;;;;;15.97;94.18;101263.84;4911646;29;20028;-77
2021/06/23 02:57:34;;;;;;;17.00;4.57;;;;;;;15.99;93.65;101260.75;4907572;29;20042;-77
2021/06/23 03:00:03;;;;;;;11.07;4.10;;;;;;;15.99;94.54;101263.47;4904319;29;20047;-77
2021/06/23 03:02:33;;;;;;;14.43;4.40;;;;;;;16.05;94.38;101267.41;4914917;29;20032;-77
2021/06/23 03:04:59;;;;;;;10.10;4.65;;;;;;;16.06;94.38;101272.47;4908157;29;21201;-77
2021/06/23 03:07:25;;;;;;;11.70;4.40;;;;;;;16.09;94.52;101277.16;4918050;29;20055;-77
2021/06/23 03:10:08;;;;;;;14.75;4.10;;;;;;;16.07;94.50;101281.38;4920723;29;20094;-77
2021/06/23 03:12:54;;;;;;;13.48;4.32;;;;;;;16.09;94.73;101289.94;4901113;29;20071;-77
2021/06/23 03:15:25;;;;;;;14.38;4.05;;;;;;;16.11;95.21;101302.00;4912248;29;20460;-77
2021/06/23 03:18:01;;;;;;;10.00;4.55;;;;;;;16.17;95.31;101297.00;4909375;29;20024;-77
2021/06/23 03:20:27;;;;;;;16.05;5.45;;;;;;;16.23;95.11;101292.78;4907144;29;20040;-77
2021/06/23 03:22:53;;;;;;;13.57;4.07;;;;;;;16.21;95.30;101312.19;4914275;29;20024;-77
2021/06/23 03:25:20;;;;;;;11.20;4.25;;;;;;;16.21;96.01;101308.69;4895909;29;20055;-77
2021/06/23 03:27:54;;;;;;;11.23;4.07;;;;;;;16.24;95.97;101307.91;4913103;29;20039;-77
2021/06/23 03:30:22;;;;;;;13.13;4.90;;;;;;;16.26;95.83;101317.28;4905902;29;20767;-77
2021/06/23 03:32:50;;;;;;;15.80;4.80;;;;;;;16.25;96.38;101313.00;4912345;29;20053;-78
2021/06/23 03:35:22;;;;;;;14.55;4.50;;;;;;;16.24;96.36;101319.59;4896343;29;20039;-77
2021/06/23 03:37:49;;;;;;;;;;;;;;;16.08;97.23;101316.38;4914291;29;20027;-77
2021/06/23 03:40:16;;;;;;;12.07;5.15;;;;;;;16.27;97.64;101312.63;4913859;29;20002;-77
2021/06/23 03:42:43;;;;;;;17.27;6.90;;;;;;;16.21;98.62;101312.19;4923643;29;20502;-77
2021/06/23 03:45:09;;;;;;;15.88;6.40;;;;;;;16.18;99.88;101320.31;4914981;29;20032;-77
2021/06/23 03:47:37;;;;;;;20.27;7.28;;;;;;;16.31;99.51;101334.38;4904058;29;20059;-77
2021/06/23 03:50:07;;;;;;;11.90;6.68;;;;;;;16.30;99.66;101327.41;4939812;29;20032;-77
2021/06/23 03:52:33;;;;;;;14.45;7.35;;;;;;;16.30;99.87;101321.97;4926020;29;21060;-77
2021/06/23 03:54:59;;;;;;;17.40;7.13;;;;;;;16.37;99.96;101309.22;4923305;29;20032;-77
2021/06/23 03:57:27;;;;;;;16.05;7.47;;;;;;;16.43;99.57;101329.47;4942446;29;20035;-77
2021/06/23 03:59:55;;;;;;;15.93;7.13;;;;;;;16.45;99.99;101329.84;4914751;29;20032;-77
2021/06/23 04:02:21;;;;;;;15.02;6.47;;;;;;;16.43;100.00;101331.38;4913544;29;20389;-77
2021/06/23 04:04:47;;;;;;;18.15;7.18;;;;;;;16.36;100.00;101323.94;4905776;29;20051;-77
2021/06/23 04:07:25;;;;;;;16.23;7.10;;;;;;;16.43;100.00;101337.63;4919987;29;20042;-78
2021/06/23 04:09:51;;;;;;;16.17;7.00;;;;;;;16.44;100.00;101336.44;4923622;29;20035;-77
2021/06/23 04:12:34;;;;;;;19.38;7.18;;;;;;;16.51;100.00;101331.06;4920574;29;20043;-77
2021/06/23 04:15:00;;;;;;;18.23;7.13;;;;;;;16.53;100.00;101325.28;4912631;29;20042;-77
2021/06/23 04:17:26;;;;;;;15.30;7.63;;;;;;;16.52;100.00;101334.59;4905412;29;20503;-76
2021/06/23 04:19:52;;;;;;;19.90;7.15;;;;;;;16.51;100.00;101343.91;4903123;29;20032;-77
2021/06/23 04:22:29;;;;;;;23.92;7.93;;;;;;;16.57;99.29;101336.97;4914505;29;20043;-78
2021/06/23 04:25:09;;;;;;;20.52;7.53;;;;;;;16.57;99.62;101336.97;4902274;29;20090;-78
2021/06/23 04:27:36;;;;;;;15.80;7.55;;;;;;;16.50;100.00;101331.47;4925251;29;20407;-78
2021/06/23 04:30:05;;;;;;;17.13;7.25;;;;;;;16.49;100.00;101333.38;4912215;29;20044;-77
2021/06/23 04:32:31;;;;;;;16.25;7.57;;;;;;;16.57;100.00;101331.53;4945179;29;20591;-78
2021/06/23 04:35:09;;;;;;;19.90;8.07;;;;;;;16.76;99.82;101314.94;4937973;29;20032;-77
2021/06/23 04:37:37;;;;;;;24.63;8.45;;;;;;;16.70;100.00;101317.25;4907504;29;20741;-77
2021/06/23 04:40:05;;;;;;;22.48;8.38;;;;;;;16.69;100.00;101325.75;4921385;29;20044;-77
2021/06/23 04:42:32;;;;;;;19.42;8.27;;;;;;;16.84;99.33;101316.53;4936765;29;20065;-77
2021/06/23 04:44:58;;;;;;;22.08;8.63;;;;;;;17.07;98.02;101320.53;4935226;29;20059;-77
2021/06/23 04:47:24;;;;;;;27.58;8.55;;;;;;;16.98;98.99;101327.47;4915676;29;20024;-77
2021/06/23 04:49:51;;;;;;;22.88;8.50;;;;;;;16.96;99.40;101329.81;4929461;29;20514;-77
2021/06/23 04:52:36;;;;;;;19.00;8.45;;;;;;;17.02;99.40;101329.06;4929171;29;20493;-77
2021/06/23 04:55:04;;;;;;;24.00;9.15;;;;;;;17.14;98.46;101333.41;4926662;29;20080;-77
2021/06/23 04:57:30;;;;;;;22.38;8.85;;;;;;;17.12;99.06;101330.28;4923029;29;20040;-77
2021/06/23 04:59:56;;;;;;;19.95;8.57;;;;;;;17.19;97.93;101333.03;4926873;29;20032;-78
2021/06/23 05:02:21;;;;;;;16.70;7.72;;;;;;;17.28;97.03;101328.03;4922075;29;20040;-77
2021/06/23 05:04:48;;;;;;;23.73;8.98;;;;;;;17.24;97.75;101331.88;4939689;29;20039;-77
2021/06/23 05:07:14;;;;;;;21.50;8.65;;;;;;;17.00;98.58;101341.50;4925759;29;20036;-77
2021/06/23 05:09:39;;;;;;;19.95;8.20;;;;;;;17.20;98.38;101352.88;4924768;29;20530;-77
2021/06/23 05:12:30;;;;;;;22.52;8.40;;;;;;;17.16;98.28;101352.84;4926117;29;20035;-77
2021/06/23 05:14:56;;;;;;;19.00;8.23;;;;;;;17.06;99.01;101351.66;4870023;29;20064;-77
2021/06/23 05:17:21;;;;;;;20.95;7.88;;;;;;;17.04;99.43;101350.44;4890724;29;20052;-77
2021/06/23 05:19:47;;;;;;;20.60;8.40;;;;;;;17.10;99.06;101341.56;4884817;29;20072;-78
2021/06/23 05:22:13;;;;;;;23.13;9.55;;;;;;;17.12;99.33;101344.69;4874360;29;20499;-77
2021/06/23 05:24:40;;;;;;;18.88;8.30;;;;;;;17.12;99.64;101333.78;4862374;29;20029;-77
2021/06/23 05:27:07;;;;;;;23.08;7.88;;;;;;;17.19;99.22;101343.91;4864623;29;20041;-77
2021/06/23 05:29:33;;;;;;;14.35;7.55;;;;;;;17.14;99.51;101339.63;4891739;29;20043;-77
2021/06/23 05:31:59;;;;;;;20.23;8.02;;;;;;;17.21;99.75;101355.19;4888685;29;20068;-78
2021/06/23 05:34:24;;;;;;;21.75;7.95;;;;;;;17.30;98.42;101361.09;4876021;29;20912;-78
2021/06/23 05:36:50;;;;;;;16.50;6.82;;;;;;;17.29;99.42;101359.53;4870488;29;20051;-77
2021/06/23 05:39:15;;;;;;;15.05;7.10;;;;;;;17.27;98.92;101355.59;4889541;29;20160;-77
2021/06/23 05:41:41;;;;;;;17.63;6.53;;;;;;;17.33;99.26;101346.69;4892756;29;20048;-77
2021/06/23 05:44:07;;;;;;;16.35;6.95;;;;;;;17.45;98.79;101340.91;4890935;29;20725;-77
2021/06/23 05:46:32;;;;;;;16.08;6.30;;;;;;;17.55;97.89;101348.38;4888480;29;20057;-77
2021/06/23 05:48:57;;;;;;;16.80;6.90;;;;;;;17.55;97.71;101348.38;4889770;29;20135;-78
2021/06/23 05:51:23;;;;;;;18.83;6.57;;;;;;;17.58;97.89;101355.78;4882910;29;20050;-77
2021/06/23 05:53:49;;;;;;;15.48;6.75;;;;;;;17.60;96.63;101363.56;4920419;29;20064;-78
2021/06/23 05:56:14;;;;;;;18.80;6.82;;;;;;;17.61;96.23;101346.06;4935013;29;20020;-77
2021/06/23 05:58:40;;;;;;;19.13;6.75;;;;;;;17.49;97.26;101349.91;4943515;29;20040;-78
2021/06/23 06:01:06;;;;;;;21.17;6.70;;;;;;;17.78;95.35;101361.66;4919284;29;20032;-78
2021/06/23 06:03:33;;;;;;;27.48;6.95;;;;;;;17.78;95.52;101362.44;4941031;29;20052;-77
2021/06/23 06:05:59;;;;;;;23.20;7.55;;;;;;;17.75;95.67;101365.19;4922295;29;20078;-77
2021/06/23 06:08:24;;;;;;;23.25;7.07;;;;;;;17.88;96.02;101364.44;4928153;29;20035;-77
2021/06/23 06:10:50;;;;;;;23.23;6.65;;;;;;;18.19;95.18;101360.19;4924651;29;20044;-77
2021/06/23 06:13:15;;;;;;;13.15;6.00;;;;;;;18.71;91.73;101362.13;4918138;29;20561;-77
2021/06/23 06:15:41;;;;;;;14.25;6.22;;;;;;;18.75;89.89;101381.22;4925169;29;20118;-77
2021/06/23 06:18:07;;;;;;;22.73;6.40;;;;;;;18.82;89.42;101383.94;4920466;29;20035;-77
2021/06/23 06:20:34;;;;;;;23.02;8.05;;;;;;;18.67;90.18;101385.13;4915417;29;20407;-77
2021/06/23 06:23:00;;;;;;;22.40;8.90;;;;;;;18.53;90.52;101385.13;4912849;29;20036;-77
2021/06/23 06:25:27;;;;;;;26.38;9.60;;;;;;;18.36;92.18;101396.81;4926528;29;20036;-77
2021/06/23 06:27:53;;;;;;;20.08;10.15;;;;;;;18.43;90.62;101397.59;4903371;29;20498;-77
2021/06/23 06:30:21;;;;;;;21.10;10.70;;;;;;;18.51;91.39;101409.31;4925342;29;20040;-77
2021/06/23 06:32:47;;;;;;;18.80;9.15;;;;;;;18.47;91.99;101403.06;4923888;29;20578;-77
2021/06/23 06:35:13;;;;;;;21.08;9.68;;;;;;;18.58;91.01;101407.34;4922762;29;20031;-77
2021/06/23 06:37:38;;;;;;;26.23;9.48;;;;;;;18.59;90.50;101405.41;4943375;29;20039;-77
2021/06/23 06:40:04;;;;;;;20.83;7.82;;;;;;;18.88;90.34;101412.41;4927396;29;20450;-78
2021/06/23 06:42:30;;;;;;;19.52;7.55;;;;;;;18.99;89.10;101417.88;4921439;29;20043;-77
2021/06/23 06:44:56;;;;;;;22.98;7.25;;;;;;;18.95;89.63;101417.09;4922511;29;20031;-77
2021/06/23 06:47:21;;;;;;;16.67;6.55;;;;;;;18.97;90.17;101418.22;4932715;29;20749;-77
2021/06/23 06:49:47;;;;;;;19.13;7.25;;;;;;;18.97;89.81;101420.97;4925540;29;20132;-77
2021/06/23 06:52:12;;;;;;;21.42;7.15;;;;;;;18.99;90.45;101417.88;4925322;29;20040;-77
2021/06/23 06:54:38;;;;;;;23.55;5.82;;;;;;;18.96;89.39;101408.50;4925296;29;20117;-77
2021/06/23 06:57:04;;;;;;;12.82;5.13;;;;;;;18.93;89.15;101401.84;4927047;29;20066;-77
2021/06/23 06:59:30;;;;;;;13.10;5.30;;;;;;;19.08;88.65;101399.91;4910335;29;20549;-77
2021/06/23 07:01:55;;;;;;;18.45;6.10;;;;;;;19.07;88.70;101403.78;4938276;29;20066;-77
2021/06/23 07:04:21;;;;;;;16.90;6.05;;;;;;;19.01;89.12;101413.53;4924716;29;20539;-77
2021/06/23 07:06:48;;;;;;;19.17;7.22;;;;;;;19.06;88.55;101409.66;4923375;29;20031;-77
2021/06/23 07:09:16;;;;;;;18.05;6.38;;;;;;;19.09;88.40;101417.81;4923739;29;20042;-76
2021/06/23 07:11:43;;;;;;;15.65;7.00;;;;;;;19.27;88.86;101404.91;4920774;29;20074;-77
2021/06/23 07:14:08;;;;;;;18.35;6.63;;;;;;;19.57;87.40;101410.69;4923788;29;20024;-77
2021/06/23 07:16:34;;;;;;;11.77;6.15;;;;;;;19.76;84.85;101398.50;4940486;29;20027;-76
2021/06/23 07:18:59;;;;;;;17.38;5.43;;;;;;;19.81;85.22;101398.06;4924142;29;20498;-77
2021/06/23 07:21:25;;;;;;;13.88;4.93;;;;;;;19.79;84.36;101401.22;4940986;29;20091;-77
2021/06/23 07:23:54;;;;;;;19.40;4.78;;;;;;;19.79;85.37;101400.44;4923296;29;20054;-77
2021/06/23 07:26:20;;;;;;;9.75;4.30;;;;;;;19.81;85.27;101409.00;4938685;29;20050;-77
2021/06/23 07:31:15;;;;;;;10.18;4.10;;;;;;;20.13;82.82;101403.34;4939450;29;20042;-77
2021/06/23 07:33:49;;;;;;;10.80;4.38;;;;;;;20.37;82.41;101396.94;4937404;29;20042;-77
2021/06/23 07:38:59;;;;;;;11.20;4.70;;;;;;;20.44;81.47;101402.38;4924760;29;20034;-77
2021/06/23 07:41:24;;;;;;;10.38;4.65;;;;;;;20.62;81.10;101403.78;4925049;29;20040;-76
2021/06/23 07:43:50;;;;;;;12.32;4.72;;;;;;;20.61;79.86;101415.91;4923437;29;20043;-77
2021/06/23 07:46:16;;;;;;;16.60;5.32;;;;;;;20.67;79.14;101413.53;4936631;29;20816;-77
2021/06/23 07:48:42;;;;;;;11.98;4.88;;;;;;;20.62;79.84;101413.94;4925233;29;20048;-77
2021/06/23 07:51:19;;;;;;;12.15;5.07;;;;;;;20.62;78.68;101414.72;4925684;29;20061;-77
2021/06/23 07:54:51;;;;;;;20.95;5.63;;;;;;;20.38;79.68;101412.94;4939883;29;20039;-77
2021/06/23 08:10:12;;;;;;;21.27;7.13;;;;;;;20.95;80.24;101426.94;4965944;28;20484;-74
2021/06/23 08:12:58;;;;;;;13.75;6.00;;;;;;;21.22;78.25;101430.59;4960495;28;20055;-75
2021/06/23 08:15:28;;;;;;;11.10;5.10;;;;;;;21.41;73.70;101416.28;4958706;28;20039;-74
2021/06/23 08:17:55;;;;;;;15.23;5.57;;;;;;;21.41;75.35;101419.03;4965978;28;20035;-74
2021/06/23 08:20:21;;;;;;;14.57;5.03;;;;;;;21.56;77.24;101414.94;4965539;28;20069;-74
2021/06/23 08:22:46;;;;;;;8.68;4.50;;;;;;;21.79;76.18;101421.72;4932833;28;20062;-75
2021/06/23 08:25:12;;;;;;;14.05;4.00;;;;;;;22.16;74.62;101427.09;4964214;28;20045;-74
2021/06/23 08:27:38;;;;;;;12.95;3.90;;;;;;;22.24;71.29;101421.06;4965681;28;20042;-74
2021/06/23 08:30:06;;;;;;;13.07;4.53;;;;;;;22.19;71.63;101427.03;4948611;28;20243;-74
2021/06/23 08:32:31;;;;;;;14.63;5.18;;;;;;;22.08;72.74;101423.69;4948524;28;20045;-74
2021/06/23 08:34:57;;;;;;;10.35;4.90;;;;;;;22.25;71.05;101433.63;4964676;28;20031;-75
2021/06/23 08:37:22;;;;;;;11.00;5.38;;;;;;;22.09;71.57;101427.19;4962303;28;20043;-74
2021/06/23 08:39:48;;;;;;;11.85;5.57;;;;;;;22.06;70.93;101431.56;4962969;28;20062;-74
2021/06/23 08:42:13;;;;;;;8.98;4.55;;;;;;;21.91;71.87;101427.44;4948775;28;20117;-74
2021/06/23 08:44:39;;;;;;;9.40;3.95;;;;;;;21.88;71.93;101435.72;4962080;28;20125;-75
2021/06/23 08:47:05;;;;;;;14.82;6.38;;;;;;;21.88;72.18;101432.97;4957500;28;20288;-75
2021/06/23 08:49:31;;;;;;;10.32;4.43;;;;;;;21.81;71.86;101427.59;4963105;28;20035;-74
2021/06/23 08:52:00;;;;;;;13.10;3.50;;;;;;;21.85;70.11;101423.63;4966931;28;20101;-73
2021/06/23 08:54:26;;;;;;;6.35;3.50;;;;;;;21.70;71.31;101416.72;4949554;28;20031;-75
2021/06/23 08:56:54;;;;;;;9.38;3.95;;;;;;;21.87;69.24;101421.25;4966267;28;20031;-75
2021/06/23 08:59:19;;;;;;;14.68;4.25;;;;;;;21.75;71.76;101426.47;4946332;28;20042;-75
2021/06/23 09:01:45;;;;;;;10.10;3.63;;;;;;;21.73;72.18;101431.56;4966842;28;20049;-74
2021/06/23 09:04:15;;;;;;;8.75;3.55;;;;;;;21.52;72.28;101427.91;4946597;28;20058;-75
2021/06/23 09:06:44;;;;;;;10.35;3.30;;;;;;;21.44;73.54;101426.47;4965070;28;20081;-74
2021/06/23 09:09:36;;;;;;;9.48;3.28;;;;;;;21.75;73.58;101424.50;4962107;28;20113;-75
2021/06/23 09:12:04;;;;;;;6.70;2.60;;;;;;;21.82;71.03;101429.13;4946774;28;20043;-74
2021/06/23 09:14:32;;;;;;;8.98;2.90;;;;;;;22.00;70.04;101435.94;4962982;28;20035;-75
2021/06/23 09:17:06;;;;;;;9.40;3.00;;;;;;;22.05;68.56;101432.72;4965366;28;20058;-75
2021/06/23 09:19:37;;;;;;;9.60;3.05;;;;;;;22.03;69.77;101439.81;4931586;28;20038;-74
2021/06/23 09:22:05;;;;;;;12.55;2.88;;;;;;;22.06;70.11;101437.03;4966103;28;20104;-75
2021/06/23 09:24:38;;;;;;;8.82;3.38;;;;;;;21.89;72.52;101437.28;4965720;28;20034;-75
2021/06/23 09:27:21;;;;;;;7.45;3.97;;;;;;;21.77;71.34;101424.09;4964173;28;20045;-73
2021/06/23 09:29:49;;;;;;;7.55;3.17;;;;;;;21.91;71.43;101432.16;4965487;28;20485;-75
2021/06/23 09:32:14;;;;;;;11.68;3.40;;;;;;;21.79;72.28;101419.75;4963776;28;20042;-75
2021/06/23 09:34:43;;;;;;;15.02;3.95;;;;;;;21.83;71.89;101416.97;4965669;28;20039;-75
2021/06/23 09:37:31;;;;;;;12.00;3.53;;;;;;;21.77;72.64;101421.34;4947847;28;20029;-75
2021/06/23 09:40:17;;;;;;;9.65;3.67;;;;;;;21.89;72.95;101418.84;4949173;28;20031;-73
2021/06/23 09:42:48;;;;;;;11.13;3.17;;;;;;;21.73;74.60;101410.41;4963835;28;20085;-74
2021/06/23 09:45:15;;;;;;;;;;;;;;;21.53;74.86;101428.69;4945809;28;21181;-74
2021/06/23 09:47:43;;;;;;;10.80;3.50;;;;;;;21.82;74.11;101434.63;4962369;28;20400;-75
2021/06/23 09:50:11;;;;;;;11.02;3.10;;;;;;;21.91;72.40;101435.66;4946929;28;20089;-72
2021/06/23 09:52:52;;;;;;;5.45;3.08;;;;;;;21.82;72.74;101434.63;4963491;28;20089;-75
2021/06/23 09:55:18;;;;;;;9.20;3.10;;;;;;;21.67;73.78;101425.00;4964089;28;20043;-75
2021/06/23 09:58:07;;;;;;;9.95;2.78;;;;;;;21.66;74.41;101420.72;4963111;28;20058;-75
2021/06/23 10:00:34;;;;;;;9.98;2.83;;;;;;;21.74;73.58;101422.94;4963797;28;20110;-75
2021/06/23 10:03:06;;;;;;;7.15;2.78;;;;;;;21.93;73.58;101413.31;4965944;28;20042;-75
2021/06/23 10:05:32;;;;;;;12.45;3.10;;;;;;;22.17;71.31;101415.69;4963311;28;20039;-75
2021/06/23 10:07:57;;;;;;;6.55;2.70;;;;;;;22.13;71.16;101422.41;4944554;28;20049;-74
2021/06/23 10:10:42;;;;;;;6.53;2.47;;;;;;;22.25;71.93;101424.59;4947105;28;20031;-73
2021/06/23 10:13:07;;;;;;;7.05;2.45;;;;;;;22.31;72.33;101425.69;4956090;28;20041;-75
2021/06/23 10:15:33;;;;;;;6.65;2.40;;;;;;;22.15;73.13;101420.81;4956125;28;20035;-75
2021/06/23 10:18:02;;;;;;;8.50;2.30;;;;;;;22.23;71.29;101419.53;4939072;28;20109;-75
2021/06/23 10:20:27;;;;;;;9.05;2.97;;;;;;;22.33;71.09;101415.84;4945675;28;20039;-75
2021/06/23 10:22:53;;;;;;;9.80;2.45;;;;;;;22.45;67.98;101434.47;4961307;28;20038;-73
2021/06/23 10:25:19;;;;;;;5.60;2.00;;;;;;;22.59;68.20;101421.75;4963577;28;20396;-74
2021/06/23 10:27:46;;;;;;;7.90;2.35;;;;;;;22.93;68.88;101423.09;4962769;28;20120;-75
2021/06/23 10:30:13;;;;;;;6.53;2.70;;;;;;;22.80;67.18;101416.66;4967746;28;20034;-75
2021/06/23 10:32:39;;;;;;;6.72;2.30;;;;;;;22.92;67.87;101421.53;4963995;28;20081;-74
2021/06/23 10:35:08;;;;;;;9.40;2.47;;;;;;;22.91;67.74;101428.25;4965310;28;20042;-73
2021/06/23 10:37:38;;;;;;;6.15;2.42;;;;;;;22.89;66.29;101427.09;4964232;28;20042;-74
2021/06/23 10:40:09;;;;;;;5.13;2.42;;;;;;;22.85;67.90;101427.16;4948536;28;20031;-75
2021/06/23 10:42:35;;;;;;;8.80;2.35;;;;;;;22.61;70.61;101436.59;4961568;28;20069;-77
2021/06/23 10:45:01;;;;;;;6.63;2.45;;;;;;;22.30;72.65;101435.88;4946601;28;20109;-73
2021/06/23 10:47:39;;;;;;;8.85;2.47;;;;;;;22.40;71.14;101442.41;4949309;28;20041;-75
2021/06/23 10:50:30;;;;;;;7.65;2.90;;;;;;;22.22;69.73;101439.16;4966898;28;20408;-75
2021/06/23 10:52:56;;;;;;;9.55;2.92;;;;;;;22.34;70.91;101433.88;4957117;28;20202;-75
2021/06/23 10:55:21;;;;;;;9.25;2.50;;;;;;;22.45;70.70;101434.47;4932611;28;20034;-74
2021/06/23 10:58:08;;;;;;;7.53;2.47;;;;;;;22.60;68.79;101434.28;4966326;28;20393;-75
2021/06/23 11:00:35;;;;;;;7.60;2.53;;;;;;;22.75;69.03;101441.88;4947076;28;20046;-74
2021/06/23 11:03:06;;;;;;;9.27;2.63;;;;;;;22.92;67.33;101442.75;4964538;28;20040;-74
2021/06/23 11:05:39;;;;;;;4.45;2.28;;;;;;;22.89;69.05;101443.59;4967589;28;20516;-74
2021/06/23 11:08:27;;;;;;;7.35;2.33;;;;;;;22.98;68.66;101444.59;4947208;28;20094;-74
2021/06/23 11:10:54;;;;;;;5.47;2.13;;;;;;;23.02;65.47;101439.81;4961409;28;20065;-75
2021/06/23 11:13:25;;;;;;;9.40;2.10;;;;;;;23.31;66.05;101440.09;4954534;28;20039;-74
2021/06/23 11:15:51;;;;;;;8.80;2.22;;;;;;;23.56;62.68;101450.59;4951675;28;20113;-74
2021/06/23 11:18:20;;;;;;;5.70;2.50;;;;;;;23.76;61.27;101457.66;4968849;28;20036;-74
2021/06/23 11:20:46;;;;;;;4.80;2.05;;;;;;;23.68;63.33;101458.22;4951466;28;20035;-74
2021/06/23 11:23:43;;;;;;;6.85;2.30;;;;;;;23.57;64.39;101452.94;4951284;28;20503;-74
2021/06/23 11:26:29;;;;;;;4.50;2.40;;;;;;;23.53;64.18;101445.94;4963147;28;20782;-74
2021/06/23 11:29:18;;;;;;;13.77;2.58;;;;;;;23.68;62.88;101447.19;4951845;28;20425;-75
2021/06/23 11:31:49;;;;;;;5.57;2.40;;;;;;;23.71;62.90;101449.88;4964870;28;20038;-76
2021/06/23 11:34:37;;;;;;;6.65;2.25;;;;;;;23.63;62.00;101450.47;4967445;28;20092;-75
2021/06/23 11:37:03;;;;;;;5.28;2.47;;;;;;;23.69;63.84;101449.53;4964699;28;20405;-75
2021/06/23 11:39:29;;;;;;;7.70;2.55;;;;;;;23.61;62.09;101448.13;4963598;28;20460;-74
2021/06/23 11:41:54;;;;;;;8.57;2.40;;;;;;;23.73;59.63;101446.72;4960366;28;20050;-75
2021/06/23 11:44:20;;;;;;;6.15;2.75;;;;;;;23.84;56.30;101447.25;4957641;28;20085;-73
2021/06/23 11:46:46;;;;;;;8.27;2.38;;;;;;;23.85;59.05;101455.09;4957331;28;20031;-75
2021/06/23 11:49:11;;;;;;;8.50;2.53;;;;;;;23.94;60.11;101457.28;4960221;28;20661;-73